createdAt,value
2018-10-01T00:00:45.345Z,101561.02
2018-10-01T00:03:14.594Z,101558.16
2018-10-01T00:05:43.579Z,101557.55
2018-10-01T00:08:12.461Z,101555.34
2018-10-01T00:10:41.388Z,101560.23
2018-10-01T00:13:10.305Z,101556.31
2018-10-01T00:15:39.225Z,101563.41
2018-10-01T00:18:08.116Z,101560.09
2018-10-01T00:20:42.423Z,101563.41
2018-10-01T00:23:11.296Z,101568.41
2018-10-01T00:25:40.228Z,101566.16
2018-10-01T00:28:09.124Z,101567.84
2018-10-01T00:30:38.012Z,101575.49
2018-10-01T00:33:10.022Z,101580.57
2018-10-01T00:35:38.935Z,101589.97
2018-10-01T00:38:07.965Z,101589.59
2018-10-01T00:40:36.894Z,101596.45
2018-10-01T00:43:05.859Z,101594.23
2018-10-01T00:45:34.739Z,101588.81
2018-10-01T00:48:03.603Z,101599.31
2018-10-01T00:50:32.472Z,101590.95
2018-10-01T00:53:01.406Z,101598.57
2018-10-01T00:55:30.298Z,101593.27
2018-10-01T00:57:59.314Z,101599.18
2018-10-01T01:00:28.249Z,101600.59
2018-10-01T01:02:57.167Z,101605.72
2018-10-01T01:05:26.973Z,101601.55
2018-10-01T01:07:56.016Z,101600.95
2018-10-01T01:10:24.883Z,101599.48
2018-10-01T01:12:54.044Z,101596.16
2018-10-01T01:15:22.953Z,101595.22
2018-10-01T01:17:51.835Z,101598.30
2018-10-01T01:20:20.899Z,101593.78
2018-10-01T01:22:49.855Z,101586.02
2018-10-01T01:25:18.772Z,101593.72
2018-10-01T01:27:47.675Z,101591.97
2018-10-01T01:30:16.577Z,101596.69
2018-10-01T01:32:45.565Z,101616.27
2018-10-01T01:35:14.472Z,101620.44
2018-10-01T01:37:43.365Z,101631.64
2018-10-01T01:40:12.272Z,101630.78
2018-10-01T01:42:41.198Z,101617.90
2018-10-01T01:45:10.100Z,101609.91
2018-10-01T01:47:38.976Z,101622.87
2018-10-01T01:50:07.875Z,101609.97
2018-10-01T01:52:36.800Z,101622.63
2018-10-01T01:55:06.224Z,101623.92
2018-10-01T01:57:35.172Z,101616.89
2018-10-01T02:00:04.979Z,101608.56
2018-10-01T02:02:33.896Z,101596.64
2018-10-01T02:05:02.872Z,101596.95
2018-10-01T02:07:31.823Z,101605.67
2018-10-01T02:10:00.775Z,101614.07
2018-10-01T02:12:29.658Z,101614.09
2018-10-01T02:14:58.540Z,101620.84
2018-10-01T02:17:27.534Z,101620.16
2018-10-01T02:19:56.420Z,101624.53
2018-10-01T02:22:25.366Z,101614.07
2018-10-01T02:24:54.271Z,101615.80
2018-10-01T02:27:23.164Z,101623.30
2018-10-01T02:29:52.072Z,101625.45
2018-10-01T02:32:21.086Z,101618.36
2018-10-01T02:34:49.976Z,101610.25
2018-10-01T02:37:18.913Z,101614.42
2018-10-01T02:39:47.844Z,101613.00
2018-10-01T02:42:16.700Z,101606.22
2018-10-01T02:44:45.622Z,101605.73
2018-10-01T02:47:15.283Z,101598.85
2018-10-01T02:49:44.169Z,101596.03
2018-10-01T02:52:18.206Z,101593.48
2018-10-01T02:54:47.148Z,101597.00
2018-10-01T02:57:16.217Z,101595.42
2018-10-01T02:59:45.140Z,101598.71
2018-10-01T03:02:14.125Z,101597.84
2018-10-01T03:04:43.051Z,101596.77
2018-10-01T03:07:11.970Z,101596.63
2018-10-01T03:09:40.973Z,101592.66
2018-10-01T03:12:09.915Z,101596.36
2018-10-01T03:14:38.912Z,101594.75
2018-10-01T03:17:07.899Z,101591.91
2018-10-01T03:19:36.838Z,101589.44
2018-10-01T03:22:05.700Z,101585.89
2018-10-01T03:24:34.770Z,101594.54
2018-10-01T03:27:03.752Z,101590.06
2018-10-01T03:29:32.692Z,101591.41
2018-10-01T03:32:01.574Z,101583.70
2018-10-01T03:34:30.476Z,101584.56
2018-10-01T03:36:59.347Z,101594.89
2018-10-01T03:39:28.274Z,101582.45
2018-10-01T03:41:57.280Z,101583.84
2018-10-01T03:44:26.255Z,101587.48
2018-10-01T03:46:55.146Z,101595.68
2018-10-01T03:49:24.033Z,101591.11
2018-10-01T03:51:52.951Z,101594.14
2018-10-01T03:54:21.948Z,101597.56
2018-10-01T03:56:50.931Z,101604.70
2018-10-01T03:59:19.824Z,101597.73
2018-10-01T04:01:48.838Z,101605.56
2018-10-01T04:04:17.748Z,101607.63
2018-10-01T04:06:46.630Z,101615.20
2018-10-01T04:09:15.527Z,101612.55
2018-10-01T04:11:44.428Z,101605.27
2018-10-01T04:14:13.387Z,101613.53
2018-10-01T04:16:42.273Z,101613.98
2018-10-01T04:19:11.222Z,101625.07
2018-10-01T04:21:40.116Z,101618.69
2018-10-01T04:24:09.040Z,101620.89
2018-10-01T04:26:37.929Z,101627.92
2018-10-01T04:29:07.232Z,101627.45
2018-10-01T04:31:36.132Z,101628.25
2018-10-01T04:34:05.030Z,101628.25
2018-10-01T04:36:33.919Z,101623.54
2018-10-01T04:39:02.822Z,101631.69
2018-10-01T04:41:31.704Z,101638.51
2018-10-01T04:44:00.639Z,101642.47
2018-10-01T04:46:29.516Z,101660.98
2018-10-01T04:48:58.496Z,101667.41
2018-10-01T04:51:27.468Z,101661.50
2018-10-01T04:53:56.364Z,101665.97
2018-10-01T04:56:25.297Z,101663.59
2018-10-01T04:58:54.302Z,101656.86
2018-10-01T05:01:23.330Z,101656.52
2018-10-01T05:03:52.330Z,101655.07
2018-10-01T05:06:21.226Z,101657.22
2018-10-01T05:08:50.212Z,101657.61
2018-10-01T05:11:19.226Z,101663.92
2018-10-01T05:13:48.100Z,101670.27
2018-10-01T05:16:16.973Z,101668.17
2018-10-01T05:18:45.876Z,101666.83
2018-10-01T05:21:14.965Z,101669.94
2018-10-01T05:23:43.855Z,101668.16
2018-10-01T05:26:12.759Z,101673.59
2018-10-01T05:28:41.664Z,101673.31
2018-10-01T05:31:10.653Z,101673.42
2018-10-01T05:33:39.545Z,101669.14
2018-10-01T05:36:08.557Z,101677.67
2018-10-01T05:38:37.454Z,101686.35
2018-10-01T05:41:06.570Z,101682.44
2018-10-01T05:43:35.762Z,101686.73
2018-10-01T05:46:04.712Z,101685.94
2018-10-01T05:48:33.601Z,101692.36
2018-10-01T05:51:02.582Z,101697.84
2018-10-01T05:53:31.496Z,101707.12
2018-10-01T05:56:00.376Z,101715.81
2018-10-01T05:58:29.290Z,101719.94
2018-10-01T06:00:58.225Z,101728.35
2018-10-01T06:03:27.298Z,101730.98
2018-10-01T06:05:56.171Z,101742.89
2018-10-01T06:08:25.092Z,101753.56
2018-10-01T06:10:54.048Z,101761.12
2018-10-01T06:13:22.934Z,101765.08
2018-10-01T06:15:51.912Z,101756.46
2018-10-01T06:18:20.829Z,101757.84
2018-10-01T06:20:49.843Z,101768.52
2018-10-01T06:23:18.769Z,101761.39
2018-10-01T06:25:47.646Z,101771.48
2018-10-01T06:28:17.674Z,101765.25
2018-10-01T06:30:46.589Z,101770.94
2018-10-01T06:33:15.460Z,101778.08
2018-10-01T06:35:44.387Z,101777.75
2018-10-01T06:38:13.263Z,101780.28
2018-10-01T06:40:42.407Z,101783.38
2018-10-01T06:43:11.298Z,101779.69
2018-10-01T06:45:40.168Z,101784.62
2018-10-01T06:48:09.047Z,101789.31
2018-10-01T06:50:37.956Z,101793.55
2018-10-01T06:53:07.732Z,101794.66
2018-10-01T06:55:36.656Z,101795.80
2018-10-01T06:58:05.688Z,101806.20
2018-10-01T07:00:34.617Z,101811.15
2018-10-01T07:03:03.492Z,101804.50
2018-10-01T07:05:32.471Z,101813.45
2018-10-01T07:08:01.377Z,101812.87
2018-10-01T07:10:30.256Z,101814.10
2018-10-01T07:12:59.172Z,101819.67
2018-10-01T07:15:28.169Z,101823.35
2018-10-01T07:17:58.186Z,101827.81
2018-10-01T07:20:27.129Z,101819.78
2018-10-01T07:22:56.162Z,101827.03
2018-10-01T07:25:24.987Z,101832.76
2018-10-01T07:27:53.974Z,101851.71
2018-10-01T07:30:22.939Z,101839.84
2018-10-01T07:32:51.913Z,101848.45
2018-10-01T07:35:20.796Z,101853.70
2018-10-01T07:37:49.705Z,101883.67
2018-10-01T07:40:18.665Z,101899.00
2018-10-01T07:42:47.591Z,101895.97
2018-10-01T07:45:16.597Z,101894.20
2018-10-01T07:47:45.362Z,101912.50
2018-10-01T07:50:14.277Z,101913.81
2018-10-01T07:52:43.175Z,101925.74
2018-10-01T07:55:17.949Z,101939.92
2018-10-01T07:57:46.922Z,101942.63
2018-10-01T08:00:15.930Z,101945.02
2018-10-01T08:02:44.825Z,101947.98
2018-10-01T08:05:13.828Z,101948.05
2018-10-01T08:07:42.876Z,101948.95
2018-10-01T08:10:11.803Z,101943.97
2018-10-01T08:12:40.771Z,101939.55
2018-10-01T08:15:09.804Z,101935.47
2018-10-01T08:17:38.756Z,101945.55
2018-10-01T08:20:07.761Z,101957.66
2018-10-01T08:22:36.920Z,101965.16
2018-10-01T08:25:05.833Z,101974.02
2018-10-01T08:27:34.766Z,101978.86
2018-10-01T08:30:03.736Z,101983.30
2018-10-01T08:32:32.653Z,101976.30
2018-10-01T08:35:01.538Z,101984.98
2018-10-01T08:37:30.456Z,101989.20
2018-10-01T08:39:59.411Z,101989.10
2018-10-01T08:42:28.383Z,101991.45
2018-10-01T08:44:57.260Z,101985.98
2018-10-01T08:47:26.300Z,101994.05
2018-10-01T08:52:07.279Z,101989.10
2018-10-01T08:54:40.507Z,101999.37
2018-10-01T08:57:09.469Z,101992.89
2018-10-01T08:59:38.570Z,102002.75
2018-10-01T09:02:07.508Z,102001.54
2018-10-01T09:04:36.311Z,102009.65
2018-10-01T09:07:05.303Z,102017.28
2018-10-01T09:09:34.203Z,102010.30
2018-10-01T09:12:03.233Z,102008.30
2018-10-01T09:14:32.293Z,102018.87
2018-10-01T09:17:01.351Z,102008.55
2018-10-01T09:19:30.287Z,102015.25
2018-10-01T09:21:59.267Z,101998.47
2018-10-01T09:24:28.175Z,102029.77
2018-10-01T09:26:57.111Z,102014.30
2018-10-01T09:29:26.083Z,102026.33
2018-10-01T09:31:56.135Z,102017.45
2018-10-01T09:34:25.504Z,102029.39
2018-10-01T09:36:54.452Z,102018.63
2018-10-01T09:39:23.432Z,102033.10
2018-10-01T09:41:52.653Z,102037.23
2018-10-01T09:44:21.698Z,102043.59
2018-10-01T09:46:50.547Z,102037.25
2018-10-01T09:49:19.551Z,102049.25
2018-10-01T09:51:48.515Z,102040.59
2018-10-01T09:54:17.424Z,102046.55
2018-10-01T09:56:46.348Z,102037.83
2018-10-01T09:59:15.279Z,102037.34
2018-10-01T10:01:44.395Z,102040.61
2018-10-01T10:04:13.295Z,102030.86
2018-10-01T10:06:42.250Z,102027.52
2018-10-01T10:09:12.628Z,102024.67
2018-10-01T10:11:41.746Z,102038.06
2018-10-01T10:14:10.675Z,102040.16
2018-10-01T10:16:39.598Z,102045.12
2018-10-01T10:19:08.558Z,102058.00
2018-10-01T10:21:37.467Z,102051.55
2018-10-01T10:24:06.416Z,102050.50
2018-10-01T10:26:35.324Z,102045.19
2018-10-01T10:29:04.216Z,102053.19
2018-10-01T10:31:33.097Z,102043.39
2018-10-01T10:34:02.085Z,102051.19
2018-10-01T10:36:30.954Z,102062.91
2018-10-01T10:39:00.017Z,102076.91
2018-10-01T10:41:28.911Z,102058.94
2018-10-01T10:43:57.829Z,102058.61
2018-10-01T10:46:26.705Z,102068.61
2018-10-01T10:48:55.616Z,102057.77
2018-10-01T10:51:24.538Z,102050.39
2018-10-01T10:53:53.435Z,102065.19
2018-10-01T10:56:22.404Z,102066.95
2018-10-01T10:58:51.385Z,102057.86
2018-10-01T11:01:20.386Z,102065.19
2018-10-01T11:03:49.272Z,102061.14
2018-10-01T11:06:18.273Z,102059.15
2018-10-01T11:08:47.131Z,102062.08
2018-10-01T11:11:16.067Z,102065.65
2018-10-01T11:13:45.110Z,102069.85
2018-10-01T11:16:14.045Z,102083.48
2018-10-01T11:18:43.271Z,102090.72
2018-10-01T11:21:12.118Z,102106.14
2018-10-01T11:23:46.588Z,102116.42
2018-10-01T11:26:15.466Z,102119.98
2018-10-01T11:28:44.429Z,102116.23
2018-10-01T11:31:13.307Z,102106.66
2018-10-01T11:33:42.404Z,102094.09
2018-10-01T11:36:11.276Z,102104.86
2018-10-01T11:38:40.150Z,102100.66
2018-10-01T11:41:09.125Z,102101.62
2018-10-01T11:43:38.170Z,102076.63
2018-10-01T11:46:07.119Z,102108.05
2018-10-01T11:48:36.211Z,102093.67
2018-10-01T11:51:07.095Z,102116.10
2018-10-01T11:53:35.919Z,102120.28
2018-10-01T11:56:04.805Z,102105.50
2018-10-01T11:58:33.696Z,102109.28
2018-10-01T12:01:02.607Z,102107.65
2018-10-01T12:03:31.629Z,102123.24
2018-10-01T12:06:00.445Z,102111.73
2018-10-01T12:08:30.462Z,102105.77
2018-10-01T12:10:59.376Z,102101.82
2018-10-01T12:13:28.268Z,102094.05
2018-10-01T12:15:57.398Z,102088.09
2018-10-01T12:18:26.111Z,102106.26
2018-10-01T12:20:55.159Z,102110.17
2018-10-01T12:23:23.958Z,102105.09
2018-10-01T12:25:52.932Z,102124.53
2018-10-01T12:28:21.876Z,102114.07
2018-10-01T12:30:51.100Z,102108.41
2018-10-01T12:33:20.059Z,102108.93
2018-10-01T12:35:48.906Z,102117.70
2018-10-01T12:38:17.818Z,102129.64
2018-10-01T12:40:46.713Z,102129.88
2018-10-01T12:43:15.911Z,102121.75
2018-10-01T12:45:45.022Z,102122.69
2018-10-01T12:48:13.885Z,102129.91
2018-10-01T12:50:42.817Z,102114.70
2018-10-01T12:53:11.792Z,102116.69
2018-10-01T12:55:40.729Z,102124.62
2018-10-01T12:58:09.650Z,102115.48
2018-10-01T13:00:38.672Z,102113.20
2018-10-01T13:03:07.630Z,102110.52
2018-10-01T13:05:36.682Z,102106.00
2018-10-01T13:08:05.570Z,102105.78
2018-10-01T13:10:34.487Z,102114.00
2018-10-01T13:13:03.397Z,102097.81
2018-10-01T13:15:32.341Z,102094.79
2018-10-01T13:18:01.316Z,102115.96
2018-10-01T13:20:30.152Z,102108.77
2018-10-01T13:22:59.036Z,102119.86
2018-10-01T13:25:27.957Z,102110.50
2018-10-01T13:27:56.944Z,102116.23
2018-10-01T13:30:25.860Z,102110.23
2018-10-01T13:32:54.735Z,102119.53
2018-10-01T13:35:23.667Z,102101.09
2018-10-01T13:37:52.713Z,102126.66
2018-10-01T13:40:21.581Z,102122.94
2018-10-01T13:42:50.468Z,102113.19
2018-10-01T13:45:19.382Z,102120.91
2018-10-01T13:47:48.322Z,102133.72
2018-10-01T13:50:17.255Z,102114.25
2018-10-01T13:52:46.235Z,102129.05
2018-10-01T13:55:15.236Z,102131.37
2018-10-01T13:57:44.172Z,102139.24
2018-10-01T14:00:13.064Z,102138.48
2018-10-01T14:02:42.054Z,102136.02
2018-10-01T14:05:10.987Z,102126.65
2018-10-01T14:07:40.021Z,102136.11
2018-10-01T14:10:08.852Z,102142.30
2018-10-01T14:12:37.757Z,102131.45
2018-10-01T14:15:07.780Z,102147.64
2018-10-01T14:17:36.736Z,102131.55
2018-10-01T14:20:05.814Z,102125.30
2018-10-01T14:22:34.548Z,102143.05
2018-10-01T14:25:03.826Z,102143.48
2018-10-01T14:27:32.784Z,102130.90
2018-10-01T14:30:01.804Z,102142.21
2018-10-01T14:32:30.717Z,102127.89
2018-10-01T14:34:59.628Z,102149.69
2018-10-01T14:37:28.599Z,102140.75
2018-10-01T14:39:57.548Z,102129.19
2018-10-01T14:42:26.493Z,102140.16
2018-10-01T14:44:55.473Z,102131.06
2018-10-01T14:47:24.469Z,102132.63
2018-10-01T14:49:53.377Z,102140.75
2018-10-01T14:52:22.367Z,102129.56
2018-10-01T14:54:51.239Z,102145.33
2018-10-01T14:57:20.208Z,102142.94
2018-10-01T14:59:49.120Z,102142.80
2018-10-01T15:02:17.991Z,102149.69
2018-10-01T15:04:46.912Z,102148.23
2018-10-01T15:07:15.835Z,102176.51
2018-10-01T15:09:44.758Z,102145.22
2018-10-01T15:12:13.781Z,102159.36
2018-10-01T15:14:42.610Z,102168.00
2018-10-01T15:17:11.581Z,102179.56
2018-10-01T15:19:40.498Z,102175.05
2018-10-01T15:22:09.399Z,102181.10
2018-10-01T15:24:38.366Z,102178.02
2018-10-01T15:27:07.286Z,102188.91
2018-10-01T15:29:36.328Z,102185.50
2018-10-01T15:32:05.316Z,102179.28
2018-10-01T15:34:34.292Z,102181.48
2018-10-01T15:37:03.175Z,102185.59
2018-10-01T15:39:32.122Z,102184.88
2018-10-01T15:42:01.145Z,102186.98
2018-10-01T15:44:29.995Z,102182.77
2018-10-01T15:46:58.958Z,102193.86
2018-10-01T15:49:27.873Z,102189.64
2018-10-01T15:51:56.786Z,102199.91
2018-10-01T15:54:25.750Z,102191.22
2018-10-01T15:56:54.759Z,102193.53
2018-10-01T15:59:23.660Z,102185.61
2018-10-01T16:01:52.793Z,102206.34
2018-10-01T16:04:21.730Z,102209.60
2018-10-01T16:06:50.646Z,102206.05
2018-10-01T16:09:19.578Z,102199.13
2018-10-01T16:11:48.496Z,102199.27
2018-10-01T16:14:17.498Z,102188.73
2018-10-01T16:16:46.402Z,102195.55
2018-10-01T16:19:15.275Z,102199.95
2018-10-01T16:21:44.295Z,102206.69
2018-10-01T16:24:13.277Z,102209.16
2018-10-01T16:26:48.752Z,102205.45
2018-10-01T16:29:17.696Z,102202.66
2018-10-01T16:31:46.798Z,102214.75
2018-10-01T16:34:15.709Z,102207.73
2018-10-01T16:36:44.589Z,102209.31
2018-10-01T16:39:14.060Z,102206.84
2018-10-01T16:41:42.964Z,102222.92
2018-10-01T16:44:11.967Z,102221.19
2018-10-01T16:46:40.862Z,102227.41
2018-10-01T16:49:09.829Z,102223.76
2018-10-01T16:51:38.696Z,102228.70
2018-10-01T16:54:07.598Z,102226.54
2018-10-01T16:56:36.561Z,102226.84
2018-10-01T16:59:05.573Z,102243.57
2018-10-01T17:01:34.548Z,102239.24
2018-10-01T17:04:03.536Z,102254.09
2018-10-01T17:06:33.309Z,102243.32
2018-10-01T17:09:03.051Z,102267.73
2018-10-01T17:11:31.886Z,102279.20
2018-10-01T17:14:00.824Z,102285.88
2018-10-01T17:16:29.820Z,102276.81
2018-10-01T17:18:58.720Z,102279.20
2018-10-01T17:21:28.012Z,102278.11
2018-10-01T17:23:56.901Z,102264.34
2018-10-01T17:26:25.894Z,102274.08
2018-10-01T17:28:54.753Z,102274.88
2018-10-01T17:31:23.668Z,102275.28
2018-10-01T17:33:52.669Z,102277.11
2018-10-01T17:36:21.666Z,102275.50
2018-10-01T17:38:50.808Z,102274.55
2018-10-01T17:41:20.608Z,102272.30
2018-10-01T17:43:49.547Z,102277.31
2018-10-01T17:46:18.436Z,102282.59
2018-10-01T17:48:47.365Z,102284.61
2018-10-01T17:51:16.259Z,102284.06
2018-10-01T17:53:45.140Z,102285.54
2018-10-01T17:56:14.140Z,102291.00
2018-10-01T17:58:43.484Z,102298.13
2018-10-01T18:01:12.419Z,102298.86
2018-10-01T18:03:41.388Z,102299.48
2018-10-01T18:06:10.451Z,102298.72
2018-10-01T18:08:39.344Z,102295.34
2018-10-01T18:11:08.261Z,102293.69
2018-10-01T18:13:37.504Z,102299.26
2018-10-01T18:16:06.603Z,102296.44
2018-10-01T18:18:35.523Z,102298.28
2018-10-01T18:21:04.658Z,102299.44
2018-10-01T18:23:33.656Z,102299.55
2018-10-01T18:26:02.718Z,102294.63
2018-10-01T18:28:31.628Z,102299.59
2018-10-01T18:31:00.632Z,102312.91
2018-10-01T18:33:29.593Z,102313.42
2018-10-01T18:35:58.616Z,102316.86
2018-10-01T18:38:27.477Z,102306.68
2018-10-01T18:40:56.422Z,102311.10
2018-10-01T18:43:25.442Z,102297.70
2018-10-01T18:45:54.372Z,102308.42
2018-10-01T18:48:23.271Z,102300.38
2018-10-01T18:50:52.196Z,102298.72
2018-10-01T18:53:21.142Z,102296.03
2018-10-01T18:55:50.010Z,102292.59
2018-10-01T18:58:18.962Z,102292.77
2018-10-01T19:00:47.892Z,102294.25
2018-10-01T19:03:16.767Z,102287.34
2018-10-01T19:05:45.857Z,102294.47
2018-10-01T19:08:14.966Z,102293.42
2018-10-01T19:10:44.008Z,102295.52
2018-10-01T19:13:12.950Z,102295.23
2018-10-01T19:15:41.822Z,102293.74
2018-10-01T19:18:10.785Z,102293.59
2018-10-01T19:20:39.712Z,102292.52
2018-10-01T19:23:08.568Z,102284.00
2018-10-01T19:25:37.502Z,102278.20
2018-10-01T19:28:06.412Z,102285.94
2018-10-01T19:30:35.358Z,102282.35
2018-10-01T19:33:04.580Z,102286.11
2018-10-01T19:35:33.399Z,102279.52
2018-10-01T19:38:02.423Z,102280.69
2018-10-01T19:40:31.296Z,102285.94
2018-10-01T19:43:00.352Z,102288.94
2018-10-01T19:45:29.320Z,102295.52
2018-10-01T19:47:58.214Z,102293.17
2018-10-01T19:50:27.117Z,102289.66
2018-10-01T19:52:56.199Z,102292.77
2018-10-01T19:55:25.167Z,102287.41
2018-10-01T19:57:54.153Z,102278.28
2018-10-01T20:00:23.752Z,102270.59
2018-10-01T20:02:52.624Z,102266.21
2018-10-01T20:05:21.520Z,102256.36
2018-10-01T20:07:50.383Z,102272.17
2018-10-01T20:10:19.359Z,102263.70
2018-10-01T20:12:48.261Z,102262.64
2018-10-01T20:15:17.240Z,102262.23
2018-10-01T20:17:46.511Z,102261.58
2018-10-01T20:20:15.442Z,102270.56
2018-10-01T20:22:44.389Z,102270.17
2018-10-01T20:25:13.330Z,102275.45
2018-10-01T20:27:42.616Z,102267.92
2018-10-01T20:30:11.424Z,102255.58
2018-10-01T20:32:40.648Z,102254.23
2018-10-01T20:35:09.851Z,102261.77
2018-10-01T20:37:38.822Z,102256.37
2018-10-01T20:40:08.671Z,102257.00
2018-10-01T20:42:37.637Z,102258.34
2018-10-01T20:45:06.559Z,102252.98
2018-10-01T20:47:35.490Z,102251.64
2018-10-01T20:50:04.559Z,102250.80
2018-10-01T20:52:33.537Z,102245.95
2018-10-01T20:55:02.380Z,102248.48
2018-10-01T20:57:31.341Z,102243.11
2018-10-01T21:00:00.255Z,102234.13
2018-10-01T21:02:29.279Z,102236.89
2018-10-01T21:04:58.050Z,102239.36
2018-10-01T21:07:26.940Z,102240.23
2018-10-01T21:09:55.830Z,102238.62
2018-10-01T21:12:24.889Z,102237.63
2018-10-01T21:14:53.842Z,102234.95
2018-10-01T21:17:22.741Z,102235.98
2018-10-01T21:19:51.633Z,102230.33
2018-10-01T21:22:20.579Z,102230.02
2018-10-01T21:24:49.492Z,102226.22
2018-10-01T21:27:18.756Z,102221.25
2018-10-01T21:29:47.658Z,102219.44
2018-10-01T21:32:17.304Z,102217.38
2018-10-01T21:34:46.178Z,102215.72
2018-10-01T21:37:15.107Z,102203.81
2018-10-01T21:40:16.465Z,102197.62
2018-10-01T21:42:45.775Z,102197.23
2018-10-01T21:45:16.116Z,102192.30
2018-10-01T21:47:45.921Z,102198.84
2018-10-01T21:50:14.814Z,102197.38
2018-10-01T21:52:43.824Z,102198.55
2018-10-01T21:55:12.802Z,102192.66
2018-10-01T21:57:41.822Z,102189.59
2018-10-01T22:00:12.082Z,102192.80
2018-10-01T22:02:41.075Z,102188.17
2018-10-01T22:05:10.033Z,102188.52
2018-10-01T22:07:39.053Z,102184.36
2018-10-01T22:10:08.153Z,102188.08
2018-10-01T22:12:37.193Z,102186.00
2018-10-01T22:15:06.176Z,102187.65
2018-10-01T22:17:35.177Z,102186.22
2018-10-01T22:20:09.541Z,102178.26
2018-10-01T22:22:44.039Z,102180.90
2018-10-01T22:25:12.995Z,102173.63
2018-10-01T22:27:41.949Z,102177.48
2018-10-01T22:30:10.958Z,102180.38
2018-10-01T22:32:39.972Z,102171.46
2018-10-01T22:35:08.903Z,102172.23
2018-10-01T22:37:37.915Z,102162.89
2018-10-01T22:40:06.925Z,102160.02
2018-10-01T22:42:35.919Z,102159.37
2018-10-01T22:45:05.783Z,102148.08
2018-10-01T22:47:34.670Z,102154.12
2018-10-01T22:50:03.605Z,102154.47
2018-10-01T22:52:32.539Z,102147.70
2018-10-01T22:55:01.451Z,102147.66
2018-10-01T22:57:30.467Z,102145.94
2018-10-01T22:59:59.479Z,102149.05
2018-10-01T23:02:28.461Z,102140.47
2018-10-01T23:04:57.497Z,102141.00
2018-10-01T23:07:26.476Z,102147.95
2018-10-01T23:09:55.363Z,102143.63
2018-10-01T23:12:24.234Z,102146.80
2018-10-01T23:14:53.227Z,102145.89
2018-10-01T23:17:22.150Z,102137.52
2018-10-01T23:19:51.052Z,102134.48
2018-10-01T23:22:20.007Z,102134.16
2018-10-01T23:24:51.075Z,102128.78
2018-10-01T23:27:20.031Z,102133.39
2018-10-01T23:29:48.930Z,102132.09
2018-10-01T23:32:17.825Z,102126.20
2018-10-01T23:34:46.936Z,102120.88
2018-10-01T23:37:15.914Z,102105.49
2018-10-01T23:39:44.857Z,102110.96
2018-10-01T23:42:13.792Z,102110.38
2018-10-01T23:44:42.646Z,102104.42
2018-10-01T23:47:11.514Z,102100.45
2018-10-01T23:49:40.417Z,102103.03
2018-10-01T23:52:09.315Z,102097.86
2018-10-01T23:54:38.214Z,102094.51
2018-10-01T23:57:07.218Z,102087.42
2018-10-01T23:59:36.265Z,102076.19
